sensor_id;sensor_type;location;lat;lon;timestamp;noise_LAeq;noise_LA_min;noise_LA_max;noise_LA01;noise_LA95
63692;Laerm;49838;51.798;10.954;2023-04-25T00:00:03;30.16;28.16;46.27;;
63692;Laerm;49838;51.798;10.954;2023-04-25T00:02:32;32.13;28.80;46.96;;
63692;Laerm;49838;51.798;10.954;2023-04-25T00:05:00;34.21;28.74;45.46;;
63692;Laerm;49838;51.798;10.954;2023-04-25T00:07:29;35.58;29.53;48.18;;
63692;Laerm;49838;51.798;10.954;2023-04-25T00:09:57;33.20;29.27;44.16;;
63692;Laerm;49838;51.798;10.954;2023-04-25T00:12:24;36.03;30.33;60.64;;
63692;Laerm;49838;51.798;10.954;2023-04-25T00:14:54;38.23;30.14;55.32;;
63692;Laerm;49838;51.798;10.954;2023-04-25T00:17:22;35.23;30.44;44.53;;
63692;Laerm;49838;51.798;10.954;2023-04-25T00:19:50;33.46;28.77;47.13;;
63692;Laerm;49838;51.798;10.954;2023-04-25T00:22:18;40.09;30.42;61.82;;
63692;Laerm;49838;51.798;10.954;2023-04-25T00:24:47;39.71;32.77;59.96;;
63692;Laerm;49838;51.798;10.954;2023-04-25T00:27:14;35.07;30.13;51.44;;
63692;Laerm;49838;51.798;10.954;2023-04-25T00:29:42;34.67;30.70;50.74;;
63692;Laerm;49838;51.798;10.954;2023-04-25T00:32:09;39.82;30.68;59.49;;
63692;Laerm;49838;51.798;10.954;2023-04-25T15:41:17;58.82;38.22;76.83;;
63692;Laerm;49838;51.798;10.954;2023-04-25T15:43:46;55.26;42.65;71.46;;
63692;Laerm;49838;51.798;10.954;2023-04-25T15:46:13;56.30;40.97;71.41;;
63692;Laerm;49838;51.798;10.954;2023-04-25T15:48:41;57.35;40.13;72.75;;
63692;Laerm;49838;51.798;10.954;2023-04-25T15:51:08;55.94;41.09;70.91;;
63692;Laerm;49838;51.798;10.954;2023-04-25T15:53:36;59.56;40.87;76.75;;
63692;Laerm;49838;51.798;10.954;2023-04-25T15:56:04;54.84;40.42;69.98;;
63692;Laerm;49838;51.798;10.954;2023-04-25T15:58:33;54.86;39.65;68.29;;
63692;Laerm;49838;51.798;10.954;2023-04-25T16:01:01;57.65;40.61;70.41;;
63692;Laerm;49838;51.798;10.954;2023-04-25T16:03:29;56.96;39.48;69.17;;
63692;Laerm;49838;51.798;10.954;2023-04-25T16:05:57;56.73;37.93;73.09;;
63692;Laerm;49838;51.798;10.954;2023-04-25T16:08:25;55.98;37.52;72.97;;
63692;Laerm;49838;51.798;10.954;2023-04-25T16:10:54;57.00;36.85;69.92;;
63692;Laerm;49838;51.798;10.954;2023-04-25T16:13:25;56.88;39.62;71.49;;
63692;Laerm;49838;51.798;10.954;2023-04-25T16:16:05;59.45;39.25;72.01;;
63692;Laerm;49838;51.798;10.954;2023-04-25T16:18:33;53.96;39.20;67.02;;
63692;Laerm;49838;51.798;10.954;2023-04-25T16:21:03;56.77;39.43;72.13;;
63692;Laerm;49838;51.798;10.954;2023-04-25T16:23:31;54.16;39.90;69.00;;
63692;Laerm;49838;51.798;10.954;2023-04-25T16:25:58;57.44;41.43;71.22;;
63692;Laerm;49838;51.798;10.954;2023-04-25T16:28:25;48.71;42.29;65.61;;
63692;Laerm;49838;51.798;10.954;2023-04-25T16:30:53;56.52;41.40;77.37;;
63692;Laerm;49838;51.798;10.954;2023-04-25T16:33:25;61.88;42.07;80.73;;
63692;Laerm;49838;51.798;10.954;2023-04-25T16:35:52;53.88;38.60;69.18;;
63692;Laerm;49838;51.798;10.954;2023-04-25T16:38:20;53.27;38.59;68.04;;
63692;Laerm;49838;51.798;10.954;2023-04-25T16:40:47;58.22;41.61;73.42;;
63692;Laerm;49838;51.798;10.954;2023-04-25T16:43:14;50.50;39.47;76.56;;
63692;Laerm;49838;51.798;10.954;2023-04-25T16:45:44;57.25;38.00;73.01;;
63692;Laerm;49838;51.798;10.954;2023-04-25T16:48:12;57.21;39.63;73.65;;
63692;Laerm;49838;51.798;10.954;2023-04-25T16:50:43;55.92;36.91;72.32;;
63692;Laerm;49838;51.798;10.954;2023-04-25T16:53:11;59.20;35.33;73.03;;
63692;Laerm;49838;51.798;10.954;2023-04-25T16:55:40;57.74;38.49;69.99;;
63692;Laerm;49838;51.798;10.954;2023-04-25T16:58:08;50.35;35.88;65.36;;
63692;Laerm;49838;51.798;10.954;2023-04-25T17:00:37;47.89;36.02;74.65;;
63692;Laerm;49838;51.798;10.954;2023-04-25T17:03:05;56.11;38.15;72.79;;
63692;Laerm;49838;51.798;10.954;2023-04-25T17:05:32;57.12;35.85;74.53;;
63692;Laerm;49838;51.798;10.954;2023-04-25T17:08:01;58.33;37.89;71.20;;
63692;Laerm;49838;51.798;10.954;2023-04-25T17:10:30;53.10;37.02;70.37;;
63692;Laerm;49838;51.798;10.954;2023-04-25T17:12:57;57.32;36.03;74.88;;
63692;Laerm;49838;51.798;10.954;2023-04-25T17:15:25;54.95;35.49;70.38;;
63692;Laerm;49838;51.798;10.954;2023-04-25T17:17:52;58.88;36.08;77.30;;
63692;Laerm;49838;51.798;10.954;2023-04-25T17:20:19;42.49;34.85;62.41;;
63692;Laerm;49838;51.798;10.954;2023-04-25T17:22:47;54.57;35.10;69.07;;
63692;Laerm;49838;51.798;10.954;2023-04-25T17:25:16;54.98;36.17;69.31;;
63692;Laerm;49838;51.798;10.954;2023-04-25T17:27:43;64.36;36.98;83.97;;
63692;Laerm;49838;51.798;10.954;2023-04-25T17:30:11;54.61;36.80;68.89;;
63692;Laerm;49838;51.798;10.954;2023-04-25T17:32:39;51.54;36.06;69.69;;
63692;Laerm;49838;51.798;10.954;2023-04-25T17:35:07;61.12;38.49;80.07;;
63692;Laerm;49838;51.798;10.954;2023-04-25T17:37:34;47.00;36.11;66.07;;
63692;Laerm;49838;51.798;10.954;2023-04-25T17:40:02;55.18;37.96;70.77;;
63692;Laerm;49838;51.798;10.954;2023-04-25T17:42:31;56.80;36.65;71.11;;
63692;Laerm;49838;51.798;10.954;2023-04-25T17:44:58;58.36;36.51;76.95;;
63692;Laerm;49838;51.798;10.954;2023-04-25T17:47:28;59.04;36.17;82.93;;
63692;Laerm;49838;51.798;10.954;2023-04-25T17:49:55;46.29;37.71;67.47;;
63692;Laerm;49838;51.798;10.954;2023-04-25T17:52:26;51.69;38.74;66.95;;
63692;Laerm;49838;51.798;10.954;2023-04-25T17:54:53;47.33;36.29;63.07;;
63692;Laerm;49838;51.798;10.954;2023-04-25T17:57:20;46.91;37.04;66.42;;
63692;Laerm;49838;51.798;10.954;2023-04-25T17:59:51;56.78;37.03;72.39;;
63692;Laerm;49838;51.798;10.954;2023-04-25T18:02:19;54.30;37.37;71.25;;
63692;Laerm;49838;51.798;10.954;2023-04-25T18:04:46;58.65;34.30;84.55;;
63692;Laerm;49838;51.798;10.954;2023-04-25T18:07:14;51.44;32.79;70.56;;
63692;Laerm;49838;51.798;10.954;2023-04-25T18:09:44;41.70;32.94;57.01;;
63692;Laerm;49838;51.798;10.954;2023-04-25T18:12:11;42.00;32.15;63.03;;
63692;Laerm;49838;51.798;10.954;2023-04-25T18:14:40;52.66;32.36;69.80;;
63692;Laerm;49838;51.798;10.954;2023-04-25T18:17:08;50.72;32.08;67.51;;
63692;Laerm;49838;51.798;10.954;2023-04-25T18:19:37;36.08;32.57;55.44;;
63692;Laerm;49838;51.798;10.954;2023-04-25T18:22:04;54.93;33.75;72.34;;
63692;Laerm;49838;51.798;10.954;2023-04-25T18:24:32;41.28;34.97;63.75;;
63692;Laerm;49838;51.798;10.954;2023-04-25T18:26:59;45.97;39.13;68.27;;
63692;Laerm;49838;51.798;10.954;2023-04-25T18:29:28;55.70;38.36;73.62;;
63692;Laerm;49838;51.798;10.954;2023-04-25T18:32:01;52.41;33.57;71.54;;
63692;Laerm;49838;51.798;10.954;2023-04-25T18:34:32;61.11;34.20;80.15;;
63692;Laerm;49838;51.798;10.954;2023-04-25T18:37:00;39.32;31.74;51.77;;
63692;Laerm;49838;51.798;10.954;2023-04-25T18:39:27;54.38;35.37;70.98;;
63692;Laerm;49838;51.798;10.954;2023-04-25T18:41:57;47.52;42.08;66.82;;
63692;Laerm;49838;51.798;10.954;2023-04-25T18:44:25;57.51;41.51;76.98;;
63692;Laerm;49838;51.798;10.954;2023-04-25T18:46:53;42.13;33.26;52.24;;
63692;Laerm;49838;51.798;10.954;2023-04-25T18:49:20;37.46;32.98;51.68;;
63692;Laerm;49838;51.798;10.954;2023-04-25T18:51:50;55.32;32.25;74.89;;
63692;Laerm;49838;51.798;10.954;2023-04-25T18:54:21;52.80;32.11;71.56;;
63692;Laerm;49838;51.798;10.954;2023-04-25T18:56:48;42.49;32.06;57.54;;
63692;Laerm;49838;51.798;10.954;2023-04-25T18:59:16;51.82;34.12;67.46;;
63692;Laerm;49838;51.798;10.954;2023-04-25T19:01:43;41.15;32.33;58.80;;
63692;Laerm;49838;51.798;10.954;2023-04-25T19:04:15;50.00;31.68;66.62;;
63692;Laerm;49838;51.798;10.954;2023-04-25T19:06:42;51.38;30.52;69.29;;
63692;Laerm;49838;51.798;10.954;2023-04-25T19:09:15;48.90;32.29;66.75;;
63692;Laerm;49838;51.798;10.954;2023-04-25T19:11:44;55.49;31.04;75.46;;
63692;Laerm;49838;51.798;10.954;2023-04-25T19:14:13;52.76;31.71;68.37;;
63692;Laerm;49838;51.798;10.954;2023-04-25T19:16:40;48.24;31.07;65.15;;
63692;Laerm;49838;51.798;10.954;2023-04-25T19:19:08;35.47;31.72;50.51;;
63692;Laerm;49838;51.798;10.954;2023-04-25T19:21:38;34.61;31.52;44.08;;
63692;Laerm;49838;51.798;10.954;2023-04-25T19:24:06;48.11;31.96;66.06;;
63692;Laerm;49838;51.798;10.954;2023-04-25T19:26:36;35.23;31.62;45.40;;
63692;Laerm;49838;51.798;10.954;2023-04-25T19:29:06;41.12;34.00;50.70;;
63692;Laerm;49838;51.798;10.954;2023-04-25T19:31:40;47.59;33.30;64.00;;
63692;Laerm;49838;51.798;10.954;2023-04-25T19:34:08;51.53;35.81;69.41;;
63692;Laerm;49838;51.798;10.954;2023-04-25T19:36:37;41.90;35.43;55.23;;
63692;Laerm;49838;51.798;10.954;2023-04-25T19:39:08;38.97;34.98;50.15;;
63692;Laerm;49838;51.798;10.954;2023-04-25T19:41:37;39.77;32.12;53.71;;
63692;Laerm;49838;51.798;10.954;2023-04-25T19:44:09;53.05;36.77;73.77;;
63692;Laerm;49838;51.798;10.954;2023-04-25T19:46:40;36.58;31.98;46.38;;
63692;Laerm;49838;51.798;10.954;2023-04-25T19:49:10;36.09;30.18;46.51;;
63692;Laerm;49838;51.798;10.954;2023-04-25T19:51:38;52.59;31.61;71.00;;
63692;Laerm;49838;51.798;10.954;2023-04-25T19:54:08;43.83;31.76;60.71;;
63692;Laerm;49838;51.798;10.954;2023-04-25T19:56:37;56.03;32.61;71.82;;
63692;Laerm;49838;51.798;10.954;2023-04-25T19:59:04;52.53;32.79;71.28;;
63692;Laerm;49838;51.798;10.954;2023-04-25T20:01:32;34.49;29.98;50.93;;
63692;Laerm;49838;51.798;10.954;2023-04-25T20:04:01;33.28;29.79;48.83;;
63692;Laerm;49838;51.798;10.954;2023-04-25T20:06:28;54.57;30.52;73.07;;
63692;Laerm;49838;51.798;10.954;2023-04-25T20:08:55;36.36;29.10;61.19;;
63692;Laerm;49838;51.798;10.954;2023-04-25T20:11:23;43.56;30.83;58.05;;
63692;Laerm;49838;51.798;10.954;2023-04-25T20:13:54;50.73;31.35;68.96;;
63692;Laerm;49838;51.798;10.954;2023-04-25T20:16:22;36.37;30.33;51.05;;
63692;Laerm;49838;51.798;10.954;2023-04-25T20:18:50;38.30;32.07;62.63;;
63692;Laerm;49838;51.798;10.954;2023-04-25T20:21:18;37.86;31.24;54.21;;
63692;Laerm;49838;51.798;10.954;2023-04-25T20:23:48;35.93;31.13;47.22;;
63692;Laerm;49838;51.798;10.954;2023-04-25T20:26:16;37.40;31.65;49.31;;
63692;Laerm;49838;51.798;10.954;2023-04-25T20:28:43;53.37;32.82;72.52;;
63692;Laerm;49838;51.798;10.954;2023-04-25T20:31:14;41.14;32.25;54.78;;
63692;Laerm;49838;51.798;10.954;2023-04-25T20:33:43;52.91;29.48;72.26;;
63692;Laerm;49838;51.798;10.954;2023-04-25T20:36:11;36.56;30.77;47.33;;
63692;Laerm;49838;51.798;10.954;2023-04-25T20:38:40;40.59;31.14;52.09;;
63692;Laerm;49838;51.798;10.954;2023-04-25T20:41:10;52.23;31.62;69.57;;
63692;Laerm;49838;51.798;10.954;2023-04-25T20:43:37;43.72;32.79;61.01;;
63692;Laerm;49838;51.798;10.954;2023-04-25T20:46:05;37.16;30.19;45.75;;
63692;Laerm;49838;51.798;10.954;2023-04-25T20:48:34;33.71;29.64;48.22;;
63692;Laerm;49838;51.798;10.954;2023-04-25T20:51:04;56.92;30.54;77.82;;
63692;Laerm;49838;51.798;10.954;2023-04-25T20:53:32;54.94;29.15;74.44;;
63692;Laerm;49838;51.798;10.954;2023-04-25T20:56:02;31.82;28.51;39.35;;
63692;Laerm;49838;51.798;10.954;2023-04-25T20:58:31;34.64;29.63;41.55;;
63692;Laerm;49838;51.798;10.954;2023-04-25T21:00:59;33.40;28.82;49.15;;
63692;Laerm;49838;51.798;10.954;2023-04-25T21:03:29;37.66;28.91;53.18;;
63692;Laerm;49838;51.798;10.954;2023-04-25T21:05:57;37.16;31.12;46.51;;
63692;Laerm;49838;51.798;10.954;2023-04-25T21:08:25;34.64;28.72;46.69;;
63692;Laerm;49838;51.798;10.954;2023-04-25T21:10:52;31.90;28.90;38.19;;
63692;Laerm;49838;51.798;10.954;2023-04-25T21:13:20;36.31;30.89;43.12;;
63692;Laerm;49838;51.798;10.954;2023-04-25T21:15:47;35.22;29.65;44.97;;
63692;Laerm;49838;51.798;10.954;2023-04-25T21:18:14;34.65;29.85;43.21;;
63692;Laerm;49838;51.798;10.954;2023-04-25T21:20:42;33.74;28.32;44.57;;
63692;Laerm;49838;51.798;10.954;2023-04-25T21:23:11;51.50;30.26;70.14;;
63692;Laerm;49838;51.798;10.954;2023-04-25T21:25:40;39.01;29.93;52.97;;
63692;Laerm;49838;51.798;10.954;2023-04-25T21:28:10;54.22;29.55;73.86;;
63692;Laerm;49838;51.798;10.954;2023-04-25T21:30:37;32.27;28.37;45.43;;
63692;Laerm;49838;51.798;10.954;2023-04-25T21:33:04;32.88;29.38;46.87;;
63692;Laerm;49838;51.798;10.954;2023-04-25T21:35:32;49.00;29.66;66.22;;
63692;Laerm;49838;51.798;10.954;2023-04-25T21:37:59;32.99;29.08;42.46;;
63692;Laerm;49838;51.798;10.954;2023-04-25T21:40:28;35.96;29.88;49.18;;
63692;Laerm;49838;51.798;10.954;2023-04-25T21:42:55;34.68;30.58;39.79;;
63692;Laerm;49838;51.798;10.954;2023-04-25T21:45:22;33.98;30.71;42.11;;
63692;Laerm;49838;51.798;10.954;2023-04-25T21:47:50;32.24;28.62;43.12;;
63692;Laerm;49838;51.798;10.954;2023-04-25T21:50:17;39.49;28.44;56.05;;
63692;Laerm;49838;51.798;10.954;2023-04-25T21:52:44;31.53;28.65;37.55;;
63692;Laerm;49838;51.798;10.954;2023-04-25T21:55:13;31.30;28.14;36.72;;
63692;Laerm;49838;51.798;10.954;2023-04-25T21:57:42;30.76;28.20;35.74;;
63692;Laerm;49838;51.798;10.954;2023-04-25T22:00:11;35.68;30.04;43.68;;
63692;Laerm;49838;51.798;10.954;2023-04-25T22:02:47;34.47;28.77;43.54;;
63692;Laerm;49838;51.798;10.954;2023-04-25T22:05:17;32.79;29.05;40.19;;
63692;Laerm;49838;51.798;10.954;2023-04-25T22:07:48;32.71;28.60;44.12;;
63692;Laerm;49838;51.798;10.954;2023-04-25T22:10:15;52.91;28.27;71.48;;
63692;Laerm;49838;51.798;10.954;2023-04-25T22:12:44;50.67;29.82;69.04;;
63692;Laerm;49838;51.798;10.954;2023-04-25T22:15:15;38.73;28.98;59.61;;
63692;Laerm;49838;51.798;10.954;2023-04-25T22:17:44;33.01;29.15;43.31;;
63692;Laerm;49838;51.798;10.954;2023-04-25T22:20:12;35.77;30.40;48.80;;
63692;Laerm;49838;51.798;10.954;2023-04-25T22:22:40;33.04;28.27;42.43;;
63692;Laerm;49838;51.798;10.954;2023-04-25T22:25:08;32.79;29.22;44.71;;
63692;Laerm;49838;51.798;10.954;2023-04-25T22:27:37;33.65;29.94;47.99;;
63692;Laerm;49838;51.798;10.954;2023-04-25T22:30:08;32.57;29.39;41.62;;
63692;Laerm;49838;51.798;10.954;2023-04-25T22:32:37;35.29;29.85;51.37;;
63692;Laerm;49838;51.798;10.954;2023-04-25T22:35:06;34.75;29.55;48.89;;
63692;Laerm;49838;51.798;10.954;2023-04-25T22:37:34;35.35;29.86;53.09;;
63692;Laerm;49838;51.798;10.954;2023-04-25T22:40:01;34.48;29.05;50.87;;
63692;Laerm;49838;51.798;10.954;2023-04-25T22:42:35;35.11;29.61;49.49;;
63692;Laerm;49838;51.798;10.954;2023-04-25T22:45:03;32.96;29.53;51.64;;
63692;Laerm;49838;51.798;10.954;2023-04-25T22:47:34;34.54;30.16;45.23;;
63692;Laerm;49838;51.798;10.954;2023-04-25T22:50:02;35.92;30.51;51.14;;
63692;Laerm;49838;51.798;10.954;2023-04-25T22:52:32;34.27;29.50;48.49;;
63692;Laerm;49838;51.798;10.954;2023-04-25T22:55:00;34.23;28.37;48.56;;
63692;Laerm;49838;51.798;10.954;2023-04-25T22:57:29;30.96;27.77;45.50;;
63692;Laerm;49838;51.798;10.954;2023-04-25T22:59:57;33.88;29.16;41.54;;
63692;Laerm;49838;51.798;10.954;2023-04-25T23:02:24;33.66;29.22;46.61;;
63692;Laerm;49838;51.798;10.954;2023-04-25T23:04:53;35.41;28.93;52.47;;
63692;Laerm;49838;51.798;10.954;2023-04-25T23:07:20;32.23;28.95;45.32;;
63692;Laerm;49838;51.798;10.954;2023-04-25T23:09:48;29.82;27.63;33.51;;
63692;Laerm;49838;51.798;10.954;2023-04-25T23:12:16;30.37;27.67;39.83;;
63692;Laerm;49838;51.798;10.954;2023-04-25T23:14:47;31.80;28.03;40.85;;
63692;Laerm;49838;51.798;10.954;2023-04-25T23:17:15;31.66;28.00;40.69;;
63692;Laerm;49838;51.798;10.954;2023-04-25T23:19:42;30.02;27.64;36.79;;
63692;Laerm;49838;51.798;10.954;2023-04-25T23:22:11;30.52;27.50;38.20;;
63692;Laerm;49838;51.798;10.954;2023-04-25T23:24:39;29.31;27.14;35.00;;
63692;Laerm;49838;51.798;10.954;2023-04-25T23:27:06;31.32;28.51;48.96;;
63692;Laerm;49838;51.798;10.954;2023-04-25T23:29:33;29.97;27.94;34.44;;
63692;Laerm;49838;51.798;10.954;2023-04-25T23:32:01;29.87;27.43;41.20;;
63692;Laerm;49838;51.798;10.954;2023-04-25T23:34:29;29.34;27.21;34.62;;
63692;Laerm;49838;51.798;10.954;2023-04-25T23:36:57;30.52;27.70;41.46;;
63692;Laerm;49838;51.798;10.954;2023-04-25T23:39:27;31.10;27.61;36.85;;
63692;Laerm;49838;51.798;10.954;2023-04-25T23:41:55;32.33;28.48;42.51;;
63692;Laerm;49838;51.798;10.954;2023-04-25T23:44:22;33.31;29.07;44.04;;
63692;Laerm;49838;51.798;10.954;2023-04-25T23:46:50;31.89;28.77;42.14;;
63692;Laerm;49838;51.798;10.954;2023-04-25T23:49:17;33.50;29.28;43.59;;
63692;Laerm;49838;51.798;10.954;2023-04-25T23:51:45;33.93;28.42;49.82;;
63692;Laerm;49838;51.798;10.954;2023-04-25T23:54:12;32.71;28.92;41.11;;
63692;Laerm;49838;51.798;10.954;2023-04-25T23:56:41;33.60;29.75;41.20;;
63692;Laerm;49838;51.798;10.954;2023-04-25T23:59:09;33.22;29.50;41.07;;
